sensor_id;sensor_type;location;lat;lon;timestamp;temperature;humidity
13186;DHT22;6658;53.080;7.428;2023-04-06T00:01:31;2.50;99.90
13186;DHT22;6658;53.080;7.428;2023-04-06T00:03:57;2.50;99.90
13186;DHT22;6658;53.080;7.428;2023-04-06T00:06:23;2.40;99.90
13186;DHT22;6658;53.080;7.428;2023-04-06T00:08:49;2.40;99.90
13186;DHT22;6658;53.080;7.428;2023-04-06T00:11:15;2.30;99.90
13186;DHT22;6658;53.080;7.428;2023-04-06T00:13:42;2.20;99.90
13186;DHT22;6658;53.080;7.428;2023-04-06T00:16:08;2.30;99.90
13186;DHT22;6658;53.080;7.428;2023-04-06T00:18:33;2.20;99.90
13186;DHT22;6658;53.080;7.428;2023-04-06T00:20:59;2.40;99.90
13186;DHT22;6658;53.080;7.428;2023-04-06T00:23:25;2.30;99.90
13186;DHT22;6658;53.080;7.428;2023-04-06T00:25:51;2.30;99.90
13186;DHT22;6658;53.080;7.428;2023-04-06T00:28:17;2.30;99.90
13186;DHT22;6658;53.080;7.428;2023-04-06T00:30:42;2.20;99.90
13186;DHT22;6658;53.080;7.428;2023-04-06T00:33:08;2.10;99.90
13186;DHT22;6658;53.080;7.428;2023-04-06T00:35:34;2.10;99.90
13186;DHT22;6658;53.080;7.428;2023-04-06T00:38:00;2.10;99.90
13186;DHT22;6658;53.080;7.428;2023-04-06T00:40:26;2.00;99.90
13186;DHT22;6658;53.080;7.428;2023-04-06T00:42:54;2.10;99.90
13186;DHT22;6658;53.080;7.428;2023-04-06T00:45:20;2.10;99.90
13186;DHT22;6658;53.080;7.428;2023-04-06T00:47:46;2.00;99.90
13186;DHT22;6658;53.080;7.428;2023-04-06T00:50:12;2.00;99.90
13186;DHT22;6658;53.080;7.428;2023-04-06T00:52:37;2.00;99.90
13186;DHT22;6658;53.080;7.428;2023-04-06T00:55:03;2.00;99.90
13186;DHT22;6658;53.080;7.428;2023-04-06T00:57:31;2.00;99.90
13186;DHT22;6658;53.080;7.428;2023-04-06T00:59:56;2.00;99.90
13186;DHT22;6658;53.080;7.428;2023-04-06T01:02:23;1.90;99.90
13186;DHT22;6658;53.080;7.428;2023-04-06T01:04:51;1.90;99.90
13186;DHT22;6658;53.080;7.428;2023-04-06T01:07:17;1.80;99.90
13186;DHT22;6658;53.080;7.428;2023-04-06T01:09:42;1.80;99.90
13186;DHT22;6658;53.080;7.428;2023-04-06T01:12:08;1.80;99.90
13186;DHT22;6658;53.080;7.428;2023-04-06T01:14:34;1.70;99.90
13186;DHT22;6658;53.080;7.428;2023-04-06T01:17:00;1.60;99.90
13186;DHT22;6658;53.080;7.428;2023-04-06T01:19:26;1.60;99.90
13186;DHT22;6658;53.080;7.428;2023-04-06T01:21:52;1.60;99.90
13186;DHT22;6658;53.080;7.428;2023-04-06T01:24:19;1.50;99.90
13186;DHT22;6658;53.080;7.428;2023-04-06T01:26:45;1.50;99.90
13186;DHT22;6658;53.080;7.428;2023-04-06T01:29:11;1.40;99.90
13186;DHT22;6658;53.080;7.428;2023-04-06T01:31:37;1.30;99.90
13186;DHT22;6658;53.080;7.428;2023-04-06T01:34:03;1.20;99.90
13186;DHT22;6658;53.080;7.428;2023-04-06T01:36:29;1.10;99.90
13186;DHT22;6658;53.080;7.428;2023-04-06T01:38:55;1.00;99.90
13186;DHT22;6658;53.080;7.428;2023-04-06T01:41:21;1.00;99.90
13186;DHT22;6658;53.080;7.428;2023-04-06T01:43:47;0.80;99.90
13186;DHT22;6658;53.080;7.428;2023-04-06T01:46:13;0.80;99.90
13186;DHT22;6658;53.080;7.428;2023-04-06T01:48:39;0.70;99.90
13186;DHT22;6658;53.080;7.428;2023-04-06T01:51:05;0.70;99.90
13186;DHT22;6658;53.080;7.428;2023-04-06T01:53:31;0.70;99.90
13186;DHT22;6658;53.080;7.428;2023-04-06T01:55:57;0.70;99.90
13186;DHT22;6658;53.080;7.428;2023-04-06T01:58:22;0.70;99.90
13186;DHT22;6658;53.080;7.428;2023-04-06T02:00:48;0.60;99.90
13186;DHT22;6658;53.080;7.428;2023-04-06T02:03:14;0.60;99.90
13186;DHT22;6658;53.080;7.428;2023-04-06T02:05:40;0.60;99.90
13186;DHT22;6658;53.080;7.428;2023-04-06T02:08:06;0.60;99.90
13186;DHT22;6658;53.080;7.428;2023-04-06T02:10:33;0.50;99.90
13186;DHT22;6658;53.080;7.428;2023-04-06T02:12:59;0.50;99.90
13186;DHT22;6658;53.080;7.428;2023-04-06T02:15:25;0.40;99.90
13186;DHT22;6658;53.080;7.428;2023-04-06T02:17:51;0.40;99.90
13186;DHT22;6658;53.080;7.428;2023-04-06T02:20:17;0.30;99.90
13186;DHT22;6658;53.080;7.428;2023-04-06T02:22:42;0.20;99.90
13186;DHT22;6658;53.080;7.428;2023-04-06T02:25:08;0.20;99.90
13186;DHT22;6658;53.080;7.428;2023-04-06T02:27:35;0.20;99.90
13186;DHT22;6658;53.080;7.428;2023-04-06T02:30:04;0.20;99.90
13186;DHT22;6658;53.080;7.428;2023-04-06T02:32:30;0.20;99.90
13186;DHT22;6658;53.080;7.428;2023-04-06T02:34:56;0.20;99.90
13186;DHT22;6658;53.080;7.428;2023-04-06T02:37:22;0.20;99.90
13186;DHT22;6658;53.080;7.428;2023-04-06T02:39:49;0.20;99.90
13186;DHT22;6658;53.080;7.428;2023-04-06T02:42:15;0.10;99.90
13186;DHT22;6658;53.080;7.428;2023-04-06T02:44:44;0.20;99.90
13186;DHT22;6658;53.080;7.428;2023-04-06T02:47:10;0.20;99.90
13186;DHT22;6658;53.080;7.428;2023-04-06T02:49:36;0.20;99.90
13186;DHT22;6658;53.080;7.428;2023-04-06T02:52:02;0.20;99.90
13186;DHT22;6658;53.080;7.428;2023-04-06T02:54:28;0.20;99.90
13186;DHT22;6658;53.080;7.428;2023-04-06T02:56:53;0.20;99.90
13186;DHT22;6658;53.080;7.428;2023-04-06T02:59:19;0.20;99.90
13186;DHT22;6658;53.080;7.428;2023-04-06T03:01:45;0.20;99.90
13186;DHT22;6658;53.080;7.428;2023-04-06T03:04:11;0.20;99.90
13186;DHT22;6658;53.080;7.428;2023-04-06T03:06:37;0.20;99.90
13186;DHT22;6658;53.080;7.428;2023-04-06T03:09:03;0.30;99.90
13186;DHT22;6658;53.080;7.428;2023-04-06T03:11:29;0.30;99.90
13186;DHT22;6658;53.080;7.428;2023-04-06T03:13:55;0.30;99.90
13186;DHT22;6658;53.080;7.428;2023-04-06T03:16:20;0.30;99.90
13186;DHT22;6658;53.080;7.428;2023-04-06T03:18:46;0.30;99.90
13186;DHT22;6658;53.080;7.428;2023-04-06T03:21:13;0.40;99.90
13186;DHT22;6658;53.080;7.428;2023-04-06T03:23:40;0.40;99.90
13186;DHT22;6658;53.080;7.428;2023-04-06T03:26:06;0.40;99.90
13186;DHT22;6658;53.080;7.428;2023-04-06T03:28:32;0.40;99.90
13186;DHT22;6658;53.080;7.428;2023-04-06T03:30:58;0.30;99.90
13186;DHT22;6658;53.080;7.428;2023-04-06T03:33:24;0.30;99.90
13186;DHT22;6658;53.080;7.428;2023-04-06T03:35:53;0.30;99.90
13186;DHT22;6658;53.080;7.428;2023-04-06T03:38:19;0.20;99.90
13186;DHT22;6658;53.080;7.428;2023-04-06T03:40:44;0.20;99.90
13186;DHT22;6658;53.080;7.428;2023-04-06T03:43:10;0.20;99.90
13186;DHT22;6658;53.080;7.428;2023-04-06T03:45:36;0.20;99.90
13186;DHT22;6658;53.080;7.428;2023-04-06T03:48:02;0.20;99.90
13186;DHT22;6658;53.080;7.428;2023-04-06T03:50:28;0.30;99.90
13186;DHT22;6658;53.080;7.428;2023-04-06T03:52:53;0.30;99.90
13186;DHT22;6658;53.080;7.428;2023-04-06T03:55:19;0.30;99.90
13186;DHT22;6658;53.080;7.428;2023-04-06T03:57:45;0.30;99.90
13186;DHT22;6658;53.080;7.428;2023-04-06T04:00:11;0.20;99.90
13186;DHT22;6658;53.080;7.428;2023-04-06T04:02:37;0.20;99.90
13186;DHT22;6658;53.080;7.428;2023-04-06T04:05:03;0.20;99.90
13186;DHT22;6658;53.080;7.428;2023-04-06T04:07:29;0.20;99.90
13186;DHT22;6658;53.080;7.428;2023-04-06T04:09:56;0.30;99.90
13186;DHT22;6658;53.080;7.428;2023-04-06T04:12:21;0.20;99.90
13186;DHT22;6658;53.080;7.428;2023-04-06T04:14:47;0.10;99.90
13186;DHT22;6658;53.080;7.428;2023-04-06T04:17:13;0.20;99.90
13186;DHT22;6658;53.080;7.428;2023-04-06T04:19:38;0.20;99.90
13186;DHT22;6658;53.080;7.428;2023-04-06T04:22:04;0.20;99.90
13186;DHT22;6658;53.080;7.428;2023-04-06T04:24:30;0.20;99.90
13186;DHT22;6658;53.080;7.428;2023-04-06T04:26:56;0.20;99.90
13186;DHT22;6658;53.080;7.428;2023-04-06T04:29:22;0.10;99.90
13186;DHT22;6658;53.080;7.428;2023-04-06T04:31:49;0.10;99.90
13186;DHT22;6658;53.080;7.428;2023-04-06T04:34:15;0.00;99.90
13186;DHT22;6658;53.080;7.428;2023-04-06T04:36:41;0.00;99.90
13186;DHT22;6658;53.080;7.428;2023-04-06T04:39:10;0.00;99.90
13186;DHT22;6658;53.080;7.428;2023-04-06T04:41:36;0.00;99.90
13186;DHT22;6658;53.080;7.428;2023-04-06T04:44:02;-0.10;99.90
13186;DHT22;6658;53.080;7.428;2023-04-06T04:46:27;-0.10;99.90
13186;DHT22;6658;53.080;7.428;2023-04-06T04:48:53;-0.10;99.90
13186;DHT22;6658;53.080;7.428;2023-04-06T04:51:19;0.00;99.90
13186;DHT22;6658;53.080;7.428;2023-04-06T04:53:47;0.00;99.90
13186;DHT22;6658;53.080;7.428;2023-04-06T04:56:13;0.00;99.90
13186;DHT22;6658;53.080;7.428;2023-04-06T04:58:38;0.10;99.90
13186;DHT22;6658;53.080;7.428;2023-04-06T05:01:04;0.10;99.90
13186;DHT22;6658;53.080;7.428;2023-04-06T05:03:31;0.10;99.90
13186;DHT22;6658;53.080;7.428;2023-04-06T05:05:57;0.10;99.90
13186;DHT22;6658;53.080;7.428;2023-04-06T05:08:23;0.10;99.90
13186;DHT22;6658;53.080;7.428;2023-04-06T05:10:49;0.20;99.90
13186;DHT22;6658;53.080;7.428;2023-04-06T05:13:15;0.20;99.90
13186;DHT22;6658;53.080;7.428;2023-04-06T05:15:41;0.20;99.90
13186;DHT22;6658;53.080;7.428;2023-04-06T05:18:07;0.20;99.90
13186;DHT22;6658;53.080;7.428;2023-04-06T05:20:34;0.30;99.90
13186;DHT22;6658;53.080;7.428;2023-04-06T05:23:00;0.50;99.90
13186;DHT22;6658;53.080;7.428;2023-04-06T05:25:26;0.60;99.90
13186;DHT22;6658;53.080;7.428;2023-04-06T05:27:52;0.80;99.90
13186;DHT22;6658;53.080;7.428;2023-04-06T05:30:18;1.00;99.90
13186;DHT22;6658;53.080;7.428;2023-04-06T05:32:43;1.30;99.90
13186;DHT22;6658;53.080;7.428;2023-04-06T05:35:10;1.70;99.90
13186;DHT22;6658;53.080;7.428;2023-04-06T05:37:36;1.80;99.90
13186;DHT22;6658;53.080;7.428;2023-04-06T05:40:02;2.10;99.90
13186;DHT22;6658;53.080;7.428;2023-04-06T05:42:35;2.30;99.90
13186;DHT22;6658;53.080;7.428;2023-04-06T05:45:02;2.40;99.90
13186;DHT22;6658;53.080;7.428;2023-04-06T05:47:28;2.50;99.90
13186;DHT22;6658;53.080;7.428;2023-04-06T05:49:57;2.60;99.90
13186;DHT22;6658;53.080;7.428;2023-04-06T05:52:23;2.70;99.90
13186;DHT22;6658;53.080;7.428;2023-04-06T05:54:48;2.70;99.90
13186;DHT22;6658;53.080;7.428;2023-04-06T05:57:14;2.70;99.90
13186;DHT22;6658;53.080;7.428;2023-04-06T05:59:42;2.70;99.90
13186;DHT22;6658;53.080;7.428;2023-04-06T06:02:08;2.60;99.90
13186;DHT22;6658;53.080;7.428;2023-04-06T06:04:33;2.60;99.90
13186;DHT22;6658;53.080;7.428;2023-04-06T06:07:00;2.60;99.90
13186;DHT22;6658;53.080;7.428;2023-04-06T06:09:26;2.60;99.90
13186;DHT22;6658;53.080;7.428;2023-04-06T06:11:51;2.60;99.90
13186;DHT22;6658;53.080;7.428;2023-04-06T06:14:17;2.70;99.90
13186;DHT22;6658;53.080;7.428;2023-04-06T06:16:43;2.70;99.90
13186;DHT22;6658;53.080;7.428;2023-04-06T06:19:09;2.80;99.90
13186;DHT22;6658;53.080;7.428;2023-04-06T06:21:34;2.80;99.90
13186;DHT22;6658;53.080;7.428;2023-04-06T06:24:00;2.90;99.90
13186;DHT22;6658;53.080;7.428;2023-04-06T06:26:26;3.10;99.90
13186;DHT22;6658;53.080;7.428;2023-04-06T06:28:52;3.40;99.90
13186;DHT22;6658;53.080;7.428;2023-04-06T06:31:17;3.60;99.90
13186;DHT22;6658;53.080;7.428;2023-04-06T06:33:46;3.90;99.90
13186;DHT22;6658;53.080;7.428;2023-04-06T06:36:16;4.10;99.90
13186;DHT22;6658;53.080;7.428;2023-04-06T06:38:42;4.40;99.90
13186;DHT22;6658;53.080;7.428;2023-04-06T06:41:07;4.50;99.90
13186;DHT22;6658;53.080;7.428;2023-04-06T06:43:33;4.70;99.90
13186;DHT22;6658;53.080;7.428;2023-04-06T06:45:59;4.80;99.90
13186;DHT22;6658;53.080;7.428;2023-04-06T06:48:25;4.90;99.90
13186;DHT22;6658;53.080;7.428;2023-04-06T06:50:50;4.90;99.90
13186;DHT22;6658;53.080;7.428;2023-04-06T06:53:16;5.10;99.90
13186;DHT22;6658;53.080;7.428;2023-04-06T06:55:42;5.50;99.90
13186;DHT22;6658;53.080;7.428;2023-04-06T06:58:09;5.70;99.90
13186;DHT22;6658;53.080;7.428;2023-04-06T07:00:35;5.90;99.90
13186;DHT22;6658;53.080;7.428;2023-04-06T07:03:01;6.00;99.90
13186;DHT22;6658;53.080;7.428;2023-04-06T07:05:27;6.10;99.90
13186;DHT22;6658;53.080;7.428;2023-04-06T07:07:53;6.20;99.90
13186;DHT22;6658;53.080;7.428;2023-04-06T07:10:19;6.20;99.90
13186;DHT22;6658;53.080;7.428;2023-04-06T07:12:45;6.30;99.90
13186;DHT22;6658;53.080;7.428;2023-04-06T07:15:11;6.50;99.90
13186;DHT22;6658;53.080;7.428;2023-04-06T07:17:37;6.70;99.90
13186;DHT22;6658;53.080;7.428;2023-04-06T07:20:03;6.90;99.90
13186;DHT22;6658;53.080;7.428;2023-04-06T07:22:29;7.10;99.90
13186;DHT22;6658;53.080;7.428;2023-04-06T07:24:56;7.20;99.90
13186;DHT22;6658;53.080;7.428;2023-04-06T07:27:21;7.50;99.90
13186;DHT22;6658;53.080;7.428;2023-04-06T07:29:47;7.70;99.90
13186;DHT22;6658;53.080;7.428;2023-04-06T07:32:13;7.80;99.90
13186;DHT22;6658;53.080;7.428;2023-04-06T07:34:38;7.90;99.90
13186;DHT22;6658;53.080;7.428;2023-04-06T07:37:04;7.90;99.90
13186;DHT22;6658;53.080;7.428;2023-04-06T07:39:30;7.90;99.90
13186;DHT22;6658;53.080;7.428;2023-04-06T07:41:56;8.10;99.90
13186;DHT22;6658;53.080;7.428;2023-04-06T07:44:22;8.60;99.90
13186;DHT22;6658;53.080;7.428;2023-04-06T07:46:48;9.00;99.90
13186;DHT22;6658;53.080;7.428;2023-04-06T07:49:13;9.30;99.90
13186;DHT22;6658;53.080;7.428;2023-04-06T07:51:39;9.60;99.90
13186;DHT22;6658;53.080;7.428;2023-04-06T07:54:05;9.50;99.90
13186;DHT22;6658;53.080;7.428;2023-04-06T07:56:31;9.60;99.90
13186;DHT22;6658;53.080;7.428;2023-04-06T07:58:57;9.50;99.90
13186;DHT22;6658;53.080;7.428;2023-04-06T08:01:24;9.70;99.90
13186;DHT22;6658;53.080;7.428;2023-04-06T08:03:50;9.60;99.90
13186;DHT22;6658;53.080;7.428;2023-04-06T08:06:16;9.60;99.90
13186;DHT22;6658;53.080;7.428;2023-04-06T08:08:42;10.00;99.90
13186;DHT22;6658;53.080;7.428;2023-04-06T08:11:09;10.30;99.90
13186;DHT22;6658;53.080;7.428;2023-04-06T08:13:35;10.30;99.90
13186;DHT22;6658;53.080;7.428;2023-04-06T08:16:01;10.10;99.90
13186;DHT22;6658;53.080;7.428;2023-04-06T08:18:27;10.20;99.90
13186;DHT22;6658;53.080;7.428;2023-04-06T08:20:54;10.40;99.90
13186;DHT22;6658;53.080;7.428;2023-04-06T08:23:20;10.60;99.90
13186;DHT22;6658;53.080;7.428;2023-04-06T08:25:46;10.60;99.90
13186;DHT22;6658;53.080;7.428;2023-04-06T08:28:12;10.60;99.90
13186;DHT22;6658;53.080;7.428;2023-04-06T08:30:40;11.00;99.90
13186;DHT22;6658;53.080;7.428;2023-04-06T08:33:06;11.70;99.90
13186;DHT22;6658;53.080;7.428;2023-04-06T08:35:32;12.40;99.90
13186;DHT22;6658;53.080;7.428;2023-04-06T08:37:57;12.80;99.90
13186;DHT22;6658;53.080;7.428;2023-04-06T08:40:23;12.70;99.40
13186;DHT22;6658;53.080;7.428;2023-04-06T08:42:54;12.50;99.50
13186;DHT22;6658;53.080;7.428;2023-04-06T08:45:21;12.60;99.90
13186;DHT22;6658;53.080;7.428;2023-04-06T08:47:51;12.70;99.30
13186;DHT22;6658;53.080;7.428;2023-04-06T08:50:18;13.20;98.80
13186;DHT22;6658;53.080;7.428;2023-04-06T08:52:48;13.20;97.70
13186;DHT22;6658;53.080;7.428;2023-04-06T08:55:15;13.30;99.00
13186;DHT22;6658;53.080;7.428;2023-04-06T08:57:41;13.40;96.00
13186;DHT22;6658;53.080;7.428;2023-04-06T09:00:10;13.30;95.30
13186;DHT22;6658;53.080;7.428;2023-04-06T09:02:39;14.00;96.30
13186;DHT22;6658;53.080;7.428;2023-04-06T09:05:08;14.10;91.90
13186;DHT22;6658;53.080;7.428;2023-04-06T09:07:36;14.30;91.70
13186;DHT22;6658;53.080;7.428;2023-04-06T09:10:03;14.10;92.00
13186;DHT22;6658;53.080;7.428;2023-04-06T09:12:30;14.10;91.50
13186;DHT22;6658;53.080;7.428;2023-04-06T09:14:57;14.10;92.00
13186;DHT22;6658;53.080;7.428;2023-04-06T09:17:30;14.00;91.90
13186;DHT22;6658;53.080;7.428;2023-04-06T09:20:02;13.70;91.80
13186;DHT22;6658;53.080;7.428;2023-04-06T09:22:40;13.70;92.60
13186;DHT22;6658;53.080;7.428;2023-04-06T09:25:08;14.80;93.40
13186;DHT22;6658;53.080;7.428;2023-04-06T09:27:36;15.60;89.10
13186;DHT22;6658;53.080;7.428;2023-04-06T09:30:07;16.40;89.70
13186;DHT22;6658;53.080;7.428;2023-04-06T09:32:53;17.00;83.40
13186;DHT22;6658;53.080;7.428;2023-04-06T09:35:20;16.60;80.90
13186;DHT22;6658;53.080;7.428;2023-04-06T09:37:47;16.40;83.10
13186;DHT22;6658;53.080;7.428;2023-04-06T09:40:13;16.40;82.70
13186;DHT22;6658;53.080;7.428;2023-04-06T09:42:44;16.50;79.00
13186;DHT22;6658;53.080;7.428;2023-04-06T09:45:11;16.00;82.60
13186;DHT22;6658;53.080;7.428;2023-04-06T09:47:37;16.00;79.70
13186;DHT22;6658;53.080;7.428;2023-04-06T09:50:05;16.00;83.90
13186;DHT22;6658;53.080;7.428;2023-04-06T09:52:37;16.70;82.50
13186;DHT22;6658;53.080;7.428;2023-04-06T09:55:05;15.60;79.30
13186;DHT22;6658;53.080;7.428;2023-04-06T09:57:51;14.60;84.10
13186;DHT22;6658;53.080;7.428;2023-04-06T10:00:22;14.10;86.30
13186;DHT22;6658;53.080;7.428;2023-04-06T10:05:55;15.10;84.70
13186;DHT22;6658;53.080;7.428;2023-04-06T10:08:25;15.10;82.70
13186;DHT22;6658;53.080;7.428;2023-04-06T10:10:54;15.50;82.30
13186;DHT22;6658;53.080;7.428;2023-04-06T10:13:20;16.20;80.40
13186;DHT22;6658;53.080;7.428;2023-04-06T10:15:46;15.70;77.60
13186;DHT22;6658;53.080;7.428;2023-04-06T10:18:13;15.60;82.70
13186;DHT22;6658;53.080;7.428;2023-04-06T10:20:59;15.70;80.50
13186;DHT22;6658;53.080;7.428;2023-04-06T10:23:45;16.70;80.70
13186;DHT22;6658;53.080;7.428;2023-04-06T10:26:17;18.40;78.10
13186;DHT22;6658;53.080;7.428;2023-04-06T10:28:45;18.70;76.10
13186;DHT22;6658;53.080;7.428;2023-04-06T10:31:13;18.70;69.80
13186;DHT22;6658;53.080;7.428;2023-04-06T10:33:39;17.70;73.10
13186;DHT22;6658;53.080;7.428;2023-04-06T10:36:13;16.80;73.40
13186;DHT22;6658;53.080;7.428;2023-04-06T10:38:40;15.80;75.70
13186;DHT22;6658;53.080;7.428;2023-04-06T10:41:08;15.30;76.20
13186;DHT22;6658;53.080;7.428;2023-04-06T10:43:35;14.70;77.20
13186;DHT22;6658;53.080;7.428;2023-04-06T10:46:06;14.50;79.50
13186;DHT22;6658;53.080;7.428;2023-04-06T10:48:43;14.30;82.80
13186;DHT22;6658;53.080;7.428;2023-04-06T10:51:16;14.40;81.10
13186;DHT22;6658;53.080;7.428;2023-04-06T10:53:46;14.20;81.10
13186;DHT22;6658;53.080;7.428;2023-04-06T10:56:14;14.30;84.30
13186;DHT22;6658;53.080;7.428;2023-04-06T10:58:54;14.40;80.70
13186;DHT22;6658;53.080;7.428;2023-04-06T11:01:22;14.40;82.60
13186;DHT22;6658;53.080;7.428;2023-04-06T11:03:54;14.30;84.20
13186;DHT22;6658;53.080;7.428;2023-04-06T11:06:26;14.30;82.80
13186;DHT22;6658;53.080;7.428;2023-04-06T11:08:53;14.30;83.90
13186;DHT22;6658;53.080;7.428;2023-04-06T11:11:21;14.30;84.10
13186;DHT22;6658;53.080;7.428;2023-04-06T11:13:50;14.20;82.30
13186;DHT22;6658;53.080;7.428;2023-04-06T11:16:36;13.90;84.50
13186;DHT22;6658;53.080;7.428;2023-04-06T11:19:03;14.00;86.20
13186;DHT22;6658;53.080;7.428;2023-04-06T11:21:35;14.00;84.30
13186;DHT22;6658;53.080;7.428;2023-04-06T11:24:08;14.00;84.70
13186;DHT22;6658;53.080;7.428;2023-04-06T11:26:58;13.80;83.80
13186;DHT22;6658;53.080;7.428;2023-04-06T11:29:27;13.70;87.40
13186;DHT22;6658;53.080;7.428;2023-04-06T11:31:58;13.80;87.40
13186;DHT22;6658;53.080;7.428;2023-04-06T11:34:25;13.90;85.60
13186;DHT22;6658;53.080;7.428;2023-04-06T11:36:59;14.00;84.20
13186;DHT22;6658;53.080;7.428;2023-04-06T11:39:26;14.00;84.70
13186;DHT22;6658;53.080;7.428;2023-04-06T11:42:00;14.10;86.40
13186;DHT22;6658;53.080;7.428;2023-04-06T11:44:44;14.20;86.00
13186;DHT22;6658;53.080;7.428;2023-04-06T11:47:12;14.20;83.00
13186;DHT22;6658;53.080;7.428;2023-04-06T11:49:39;14.30;83.20
13186;DHT22;6658;53.080;7.428;2023-04-06T11:52:34;14.50;82.40
13186;DHT22;6658;53.080;7.428;2023-04-06T11:55:18;14.60;78.40
13186;DHT22;6658;53.080;7.428;2023-04-06T11:57:44;14.60;80.30
13186;DHT22;6658;53.080;7.428;2023-04-06T12:00:11;14.70;79.10
13186;DHT22;6658;53.080;7.428;2023-04-06T12:02:38;14.90;80.50
13186;DHT22;6658;53.080;7.428;2023-04-06T12:05:05;14.80;76.90
13186;DHT22;6658;53.080;7.428;2023-04-06T12:07:32;14.40;74.80
13186;DHT22;6658;53.080;7.428;2023-04-06T12:10:02;14.20;77.40
13186;DHT22;6658;53.080;7.428;2023-04-06T12:12:28;14.10;79.60
13186;DHT22;6658;53.080;7.428;2023-04-06T12:14:54;14.00;80.20
13186;DHT22;6658;53.080;7.428;2023-04-06T12:17:23;14.30;82.00
13186;DHT22;6658;53.080;7.428;2023-04-06T12:19:49;14.60;80.20
13186;DHT22;6658;53.080;7.428;2023-04-06T12:22:15;14.60;75.50
13186;DHT22;6658;53.080;7.428;2023-04-06T12:24:41;14.40;79.00
13186;DHT22;6658;53.080;7.428;2023-04-06T12:27:07;14.60;78.70
13186;DHT22;6658;53.080;7.428;2023-04-06T12:29:34;14.90;79.30
13186;DHT22;6658;53.080;7.428;2023-04-06T12:31:59;15.20;79.60
13186;DHT22;6658;53.080;7.428;2023-04-06T12:34:26;15.40;80.00
13186;DHT22;6658;53.080;7.428;2023-04-06T12:36:52;15.60;79.30
13186;DHT22;6658;53.080;7.428;2023-04-06T12:39:19;15.30;73.30
13186;DHT22;6658;53.080;7.428;2023-04-06T12:41:45;14.90;75.60
13186;DHT22;6658;53.080;7.428;2023-04-06T12:44:11;14.60;77.20
13186;DHT22;6658;53.080;7.428;2023-04-06T12:46:37;14.70;79.50
13186;DHT22;6658;53.080;7.428;2023-04-06T12:49:03;14.60;79.30
13186;DHT22;6658;53.080;7.428;2023-04-06T12:51:28;14.30;79.30
13186;DHT22;6658;53.080;7.428;2023-04-06T12:53:54;14.40;79.10
13186;DHT22;6658;53.080;7.428;2023-04-06T12:56:20;14.30;79.10
13186;DHT22;6658;53.080;7.428;2023-04-06T12:58:50;14.40;80.60
13186;DHT22;6658;53.080;7.428;2023-04-06T13:01:16;14.60;80.80
13186;DHT22;6658;53.080;7.428;2023-04-06T13:03:42;14.80;80.70
13186;DHT22;6658;53.080;7.428;2023-04-06T13:06:09;14.80;76.90
13186;DHT22;6658;53.080;7.428;2023-04-06T13:08:35;14.60;79.20
13186;DHT22;6658;53.080;7.428;2023-04-06T13:11:04;14.50;80.40
13186;DHT22;6658;53.080;7.428;2023-04-06T13:13:30;14.70;81.20
13186;DHT22;6658;53.080;7.428;2023-04-06T13:16:01;14.90;82.30
13186;DHT22;6658;53.080;7.428;2023-04-06T13:18:28;15.20;78.90
13186;DHT22;6658;53.080;7.428;2023-04-06T13:20:56;15.40;79.20
13186;DHT22;6658;53.080;7.428;2023-04-06T13:23:22;15.30;77.10
13186;DHT22;6658;53.080;7.428;2023-04-06T13:25:56;15.20;77.80
13186;DHT22;6658;53.080;7.428;2023-04-06T13:28:22;15.20;76.90
13186;DHT22;6658;53.080;7.428;2023-04-06T13:30:48;15.00;78.50
13186;DHT22;6658;53.080;7.428;2023-04-06T13:33:14;15.10;80.50
13186;DHT22;6658;53.080;7.428;2023-04-06T13:35:44;15.30;79.90
13186;DHT22;6658;53.080;7.428;2023-04-06T13:38:11;15.20;76.00
13186;DHT22;6658;53.080;7.428;2023-04-06T13:40:39;14.80;76.70
13186;DHT22;6658;53.080;7.428;2023-04-06T13:43:05;14.60;78.30
13186;DHT22;6658;53.080;7.428;2023-04-06T13:45:31;14.60;79.20
13186;DHT22;6658;53.080;7.428;2023-04-06T13:47:57;14.60;81.10
13186;DHT22;6658;53.080;7.428;2023-04-06T13:50:25;14.50;79.00
13186;DHT22;6658;53.080;7.428;2023-04-06T13:52:50;14.80;79.90
13186;DHT22;6658;53.080;7.428;2023-04-06T13:55:16;14.80;79.40
13186;DHT22;6658;53.080;7.428;2023-04-06T13:57:42;14.90;81.20
13186;DHT22;6658;53.080;7.428;2023-04-06T14:00:08;15.00;79.40
13186;DHT22;6658;53.080;7.428;2023-04-06T14:02:34;15.10;78.90
13186;DHT22;6658;53.080;7.428;2023-04-06T14:05:00;14.90;77.50
13186;DHT22;6658;53.080;7.428;2023-04-06T14:07:26;14.50;77.90
13186;DHT22;6658;53.080;7.428;2023-04-06T14:09:52;14.60;78.40
13186;DHT22;6658;53.080;7.428;2023-04-06T14:12:17;14.70;81.00
13186;DHT22;6658;53.080;7.428;2023-04-06T14:14:43;14.80;77.20
13186;DHT22;6658;53.080;7.428;2023-04-06T14:17:09;14.70;79.20
13186;DHT22;6658;53.080;7.428;2023-04-06T14:19:35;14.90;78.90
13186;DHT22;6658;53.080;7.428;2023-04-06T14:22:01;15.00;79.20
13186;DHT22;6658;53.080;7.428;2023-04-06T14:24:27;15.00;79.60
13186;DHT22;6658;53.080;7.428;2023-04-06T14:26:53;14.90;77.70
13186;DHT22;6658;53.080;7.428;2023-04-06T14:29:18;14.60;78.40
13186;DHT22;6658;53.080;7.428;2023-04-06T14:31:48;14.40;80.90
13186;DHT22;6658;53.080;7.428;2023-04-06T14:34:13;14.50;84.60
13186;DHT22;6658;53.080;7.428;2023-04-06T14:36:39;14.70;83.70
13186;DHT22;6658;53.080;7.428;2023-04-06T14:39:05;14.70;82.50
13186;DHT22;6658;53.080;7.428;2023-04-06T14:41:32;14.70;80.10
13186;DHT22;6658;53.080;7.428;2023-04-06T14:43:58;14.80;82.20
13186;DHT22;6658;53.080;7.428;2023-04-06T14:46:24;14.90;82.60
13186;DHT22;6658;53.080;7.428;2023-04-06T14:48:49;14.70;81.30
13186;DHT22;6658;53.080;7.428;2023-04-06T14:51:16;14.80;81.40
13186;DHT22;6658;53.080;7.428;2023-04-06T14:53:42;14.90;80.70
13186;DHT22;6658;53.080;7.428;2023-04-06T14:56:08;14.70;80.20
13186;DHT22;6658;53.080;7.428;2023-04-06T14:58:33;14.70;82.00
13186;DHT22;6658;53.080;7.428;2023-04-06T15:01:01;14.60;80.70
13186;DHT22;6658;53.080;7.428;2023-04-06T15:03:28;14.50;83.50
13186;DHT22;6658;53.080;7.428;2023-04-06T15:05:54;14.70;86.40
13186;DHT22;6658;53.080;7.428;2023-04-06T15:08:21;14.80;84.40
13186;DHT22;6658;53.080;7.428;2023-04-06T15:10:47;14.90;83.60
13186;DHT22;6658;53.080;7.428;2023-04-06T15:13:13;14.60;82.10
13186;DHT22;6658;53.080;7.428;2023-04-06T15:15:40;14.60;82.80
13186;DHT22;6658;53.080;7.428;2023-04-06T15:18:07;14.70;83.00
13186;DHT22;6658;53.080;7.428;2023-04-06T15:20:33;14.80;82.20
13186;DHT22;6658;53.080;7.428;2023-04-06T15:22:58;14.80;82.60
13186;DHT22;6658;53.080;7.428;2023-04-06T15:25:24;14.70;82.10
13186;DHT22;6658;53.080;7.428;2023-04-06T15:27:50;14.70;80.90
13186;DHT22;6658;53.080;7.428;2023-04-06T15:30:15;14.40;83.00
13186;DHT22;6658;53.080;7.428;2023-04-06T15:33:00;14.20;82.00
13186;DHT22;6658;53.080;7.428;2023-04-06T15:35:27;14.10;84.00
13186;DHT22;6658;53.080;7.428;2023-04-06T15:37:54;14.30;84.20
13186;DHT22;6658;53.080;7.428;2023-04-06T15:40:21;14.30;83.40
13186;DHT22;6658;53.080;7.428;2023-04-06T15:42:47;14.30;84.40
13186;DHT22;6658;53.080;7.428;2023-04-06T15:45:13;14.20;84.10
13186;DHT22;6658;53.080;7.428;2023-04-06T15:47:40;14.30;85.20
13186;DHT22;6658;53.080;7.428;2023-04-06T15:50:07;14.30;85.70
13186;DHT22;6658;53.080;7.428;2023-04-06T15:52:33;14.40;83.70
13186;DHT22;6658;53.080;7.428;2023-04-06T15:55:00;14.30;84.40
13186;DHT22;6658;53.080;7.428;2023-04-06T15:57:25;14.20;87.50